createdAt,value
2018-01-30T00:02:00.014Z,10.77
2018-01-30T00:04:28.308Z,10.85
2018-01-30T00:06:56.579Z,10.85
2018-01-30T00:09:24.901Z,10.83
2018-01-30T00:11:53.196Z,10.82
2018-01-30T00:14:21.500Z,10.81
2018-01-30T00:16:49.803Z,10.81
2018-01-30T00:19:18.125Z,10.76
2018-01-30T00:21:46.407Z,10.77
2018-01-30T00:24:14.683Z,10.53
2018-01-30T00:26:42.996Z,10.70
2018-01-30T00:29:11.273Z,10.75
2018-01-30T00:31:39.606Z,10.76
2018-01-30T00:34:08.110Z,10.70
2018-01-30T00:36:37.194Z,10.71
2018-01-30T00:39:05.474Z,10.74
2018-01-30T00:41:33.836Z,10.70
2018-01-30T00:44:02.101Z,10.73
2018-01-30T00:46:30.394Z,10.76
2018-01-30T00:48:58.671Z,10.71
2018-01-30T00:51:26.985Z,10.69
2018-01-30T00:53:55.307Z,10.69
2018-01-30T00:56:23.636Z,10.74
2018-01-30T00:58:51.919Z,10.73
2018-01-30T01:01:20.187Z,10.77
2018-01-30T01:03:48.527Z,10.41
2018-01-30T01:06:16.811Z,10.23
2018-01-30T01:08:45.116Z,10.23
2018-01-30T01:11:13.371Z,10.19
2018-01-30T01:13:41.672Z,10.14
2018-01-30T01:16:09.961Z,10.10
2018-01-30T01:18:38.274Z,10.05
2018-01-30T01:21:06.542Z,9.99
2018-01-30T01:23:34.827Z,9.95
2018-01-30T01:26:03.094Z,9.98
2018-01-30T01:28:31.381Z,9.89
2018-01-30T01:30:59.671Z,10.10
2018-01-30T01:33:27.955Z,10.23
2018-01-30T01:35:56.262Z,10.29
2018-01-30T01:38:24.537Z,10.54
2018-01-30T01:40:52.849Z,10.72
2018-01-30T01:43:21.110Z,10.79
2018-01-30T01:45:49.423Z,10.55
2018-01-30T01:48:17.690Z,10.45
2018-01-30T01:50:45.981Z,10.40
2018-01-30T01:53:14.311Z,10.45
2018-01-30T01:55:42.610Z,10.50
2018-01-30T01:58:10.921Z,10.53
2018-01-30T02:00:40.381Z,10.54
2018-01-30T02:03:08.699Z,10.50
2018-01-30T02:05:36.970Z,10.56
2018-01-30T02:08:05.346Z,10.61
2018-01-30T02:10:33.636Z,10.87
2018-01-30T02:13:01.911Z,10.87
2018-01-30T02:15:30.279Z,11.03
2018-01-30T02:17:58.584Z,11.11
2018-01-30T02:20:26.903Z,11.02
2018-01-30T02:22:55.194Z,11.04
2018-01-30T02:25:23.483Z,11.09
2018-01-30T02:27:51.795Z,11.12
2018-01-30T02:30:20.083Z,11.10
2018-01-30T02:32:48.818Z,11.01
2018-01-30T02:35:17.116Z,10.97
2018-01-30T02:37:45.395Z,11.03
2018-01-30T02:40:13.688Z,11.14
2018-01-30T02:42:42.032Z,11.24
2018-01-30T02:45:11.446Z,11.27
2018-01-30T02:47:39.710Z,11.08
2018-01-30T02:50:07.987Z,10.78
2018-01-30T02:52:36.301Z,10.57
2018-01-30T02:55:05.171Z,10.47
2018-01-30T02:57:33.501Z,10.46
2018-01-30T03:00:01.776Z,10.41
2018-01-30T03:02:30.091Z,10.35
2018-01-30T03:04:58.372Z,10.31
2018-01-30T03:07:26.659Z,10.27
2018-01-30T03:09:54.935Z,10.29
2018-01-30T03:12:23.287Z,10.47
2018-01-30T03:14:51.574Z,10.67
2018-01-30T03:17:19.883Z,10.83
2018-01-30T03:19:48.152Z,10.80
2018-01-30T03:22:16.475Z,10.44
2018-01-30T03:24:44.773Z,10.27
2018-01-30T03:27:13.055Z,10.22
2018-01-30T03:29:41.375Z,10.13
2018-01-30T03:32:09.634Z,9.96
2018-01-30T03:34:37.948Z,10.10
2018-01-30T03:37:06.240Z,10.23
2018-01-30T03:39:34.548Z,10.42
2018-01-30T03:42:02.818Z,10.32
2018-01-30T03:44:31.132Z,10.21
2018-01-30T03:46:59.399Z,10.17
2018-01-30T03:49:27.710Z,10.23
2018-01-30T03:51:56.018Z,10.23
2018-01-30T03:54:24.305Z,10.00
2018-01-30T03:56:52.603Z,10.06
2018-01-30T03:59:20.896Z,9.99
2018-01-30T04:01:49.193Z,9.96
2018-01-30T04:04:17.470Z,10.02
2018-01-30T04:06:45.783Z,9.97
2018-01-30T04:09:14.061Z,10.21
2018-01-30T04:11:42.366Z,10.20
2018-01-30T04:14:10.764Z,10.28
2018-01-30T04:16:39.811Z,10.32
2018-01-30T04:19:08.097Z,10.13
2018-01-30T04:21:36.458Z,9.89
2018-01-30T04:24:05.055Z,9.88
2018-01-30T04:26:33.329Z,10.07
2018-01-30T04:29:01.638Z,10.13
2018-01-30T04:31:29.900Z,10.00
2018-01-30T04:33:58.223Z,9.83
2018-01-30T04:36:26.650Z,9.75
2018-01-30T04:38:54.935Z,9.68
2018-01-30T04:41:23.212Z,9.53
2018-01-30T04:43:51.513Z,9.33
2018-01-30T04:46:19.763Z,9.25
2018-01-30T04:48:49.458Z,9.35
2018-01-30T04:51:17.727Z,9.45
2018-01-30T04:53:46.026Z,9.40
2018-01-30T04:56:14.325Z,9.35
2018-01-30T04:58:43.579Z,9.32
2018-01-30T05:01:12.670Z,9.18
2018-01-30T05:03:40.957Z,8.97
2018-01-30T05:06:09.635Z,8.68
2018-01-30T05:08:37.910Z,8.71
2018-01-30T05:11:06.235Z,8.68
2018-01-30T05:13:34.500Z,8.77
2018-01-30T05:16:02.847Z,8.84
2018-01-30T05:18:31.730Z,8.88
2018-01-30T05:21:00.036Z,8.85
2018-01-30T05:23:28.303Z,8.81
2018-01-30T05:25:56.671Z,8.71
2018-01-30T05:28:24.952Z,8.83
2018-01-30T05:30:53.217Z,8.80
2018-01-30T05:33:21.894Z,8.79
2018-01-30T05:35:50.195Z,8.86
2018-01-30T05:38:18.520Z,8.84
2018-01-30T05:40:46.748Z,8.78
2018-01-30T05:43:15.075Z,8.69
2018-01-30T05:45:43.404Z,8.66
2018-01-30T05:48:11.757Z,8.81
2018-01-30T05:50:40.033Z,8.75
2018-01-30T05:53:09.229Z,8.71
2018-01-30T05:55:37.551Z,8.74
2018-01-30T05:58:07.035Z,8.84
2018-01-30T06:00:35.337Z,8.83
2018-01-30T06:03:03.687Z,8.84
2018-01-30T06:05:32.054Z,8.67
2018-01-30T06:08:00.343Z,8.79
2018-01-30T06:13:36.418Z,8.72
2018-01-30T06:16:06.413Z,8.62
2018-01-30T06:18:34.714Z,8.74
2018-01-30T06:21:03.044Z,8.81
2018-01-30T06:23:31.343Z,8.80
2018-01-30T06:25:59.643Z,8.77
2018-01-30T06:28:27.899Z,8.71
2018-01-30T06:30:56.191Z,8.69
2018-01-30T06:33:24.513Z,8.66
2018-01-30T06:35:52.824Z,8.66
2018-01-30T06:38:21.114Z,8.70
2018-01-30T06:40:49.406Z,8.78
2018-01-30T06:43:17.672Z,8.83
2018-01-30T06:45:46.004Z,8.74
2018-01-30T06:48:14.259Z,8.74
2018-01-30T06:50:42.603Z,8.70
2018-01-30T06:53:10.875Z,8.67
2018-01-30T06:55:39.244Z,8.59
2018-01-30T06:58:07.530Z,8.54
2018-01-30T07:00:35.832Z,8.57
2018-01-30T07:03:04.152Z,8.62
2018-01-30T07:05:32.448Z,8.62
2018-01-30T07:08:00.750Z,8.74
2018-01-30T07:10:29.075Z,8.74
2018-01-30T07:12:57.379Z,8.64
2018-01-30T07:15:25.659Z,8.63
2018-01-30T07:17:54.621Z,8.60
2018-01-30T07:20:22.900Z,8.73
2018-01-30T07:22:51.270Z,8.79
2018-01-30T07:25:19.577Z,8.94
2018-01-30T07:27:47.854Z,8.83
2018-01-30T07:30:16.152Z,8.84
2018-01-30T07:32:44.479Z,8.77
2018-01-30T07:35:12.807Z,8.74
2018-01-30T07:37:41.070Z,8.73
2018-01-30T07:40:09.376Z,8.67
2018-01-30T07:42:37.672Z,8.63
2018-01-30T07:45:06.775Z,8.65
2018-01-30T07:47:35.182Z,8.55
2018-01-30T07:50:03.507Z,8.52
2018-01-30T07:52:31.778Z,8.62
2018-01-30T07:55:00.123Z,8.74
2018-01-30T07:57:28.446Z,8.80
2018-01-30T07:59:56.926Z,8.64
2018-01-30T08:02:25.183Z,8.78
2018-01-30T08:04:53.639Z,8.82
2018-01-30T08:07:21.904Z,8.98
2018-01-30T08:09:50.967Z,9.02
2018-01-30T08:12:19.338Z,9.01
2018-01-30T08:14:47.585Z,9.06
2018-01-30T08:17:15.845Z,9.00
2018-01-30T08:19:44.134Z,9.03
2018-01-30T08:22:12.547Z,9.20
2018-01-30T08:24:41.516Z,9.18
2018-01-30T08:27:09.780Z,9.21
2018-01-30T08:29:38.132Z,9.16
2018-01-30T08:32:06.389Z,9.17
2018-01-30T08:34:34.693Z,9.13
2018-01-30T08:37:02.972Z,9.21
2018-01-30T08:39:31.270Z,8.97
2018-01-30T08:41:59.563Z,9.11
2018-01-30T08:44:28.172Z,9.33
2018-01-30T08:46:56.439Z,9.40
2018-01-30T08:49:24.930Z,9.41
2018-01-30T08:51:53.692Z,9.51
2018-01-30T08:54:21.995Z,9.62
2018-01-30T08:56:50.373Z,9.69
2018-01-30T08:59:18.800Z,9.61
2018-01-30T09:01:47.126Z,9.63
2018-01-30T09:04:15.463Z,9.63
2018-01-30T09:06:43.778Z,9.65
2018-01-30T09:09:12.189Z,9.66
2018-01-30T09:11:40.503Z,9.80
2018-01-30T09:14:08.761Z,9.90
2018-01-30T09:16:37.167Z,9.92
2018-01-30T09:19:05.674Z,9.94
2018-01-30T09:21:34.402Z,9.86
2018-01-30T09:24:02.707Z,9.93
2018-01-30T09:26:31.016Z,9.95
2018-01-30T09:28:59.335Z,9.94
2018-01-30T09:31:27.623Z,9.88
2018-01-30T09:33:55.924Z,9.94
2018-01-30T09:36:24.256Z,9.96
2018-01-30T09:38:52.674Z,9.96
2018-01-30T09:41:20.944Z,10.10
2018-01-30T09:43:49.242Z,10.25
2018-01-30T09:46:17.622Z,10.10
2018-01-30T09:48:45.913Z,10.04
2018-01-30T09:51:14.280Z,10.18
2018-01-30T09:53:42.587Z,10.15
2018-01-30T09:56:11.522Z,10.10
2018-01-30T09:58:41.383Z,10.06
2018-01-30T10:01:10.594Z,9.93
2018-01-30T10:03:38.871Z,9.96
2018-01-30T10:06:07.188Z,10.06
2018-01-30T10:08:35.450Z,10.23
2018-01-30T10:11:03.751Z,10.39
2018-01-30T10:13:32.071Z,10.56
2018-01-30T10:16:00.405Z,10.60
2018-01-30T10:18:28.682Z,10.61
2018-01-30T10:20:56.978Z,10.64
2018-01-30T10:23:25.289Z,10.56
2018-01-30T10:25:53.582Z,10.61
2018-01-30T10:28:22.006Z,10.68
2018-01-30T10:30:50.828Z,10.78
2018-01-30T10:33:19.105Z,10.85
2018-01-30T10:35:47.426Z,10.85
2018-01-30T10:38:15.706Z,10.71
2018-01-30T10:40:44.036Z,10.74
2018-01-30T10:43:13.132Z,10.85
2018-01-30T10:45:41.457Z,10.97
2018-01-30T10:48:09.803Z,11.02
2018-01-30T10:50:38.030Z,10.92
2018-01-30T10:53:06.342Z,10.78
2018-01-30T10:55:35.964Z,10.78
2018-01-30T10:58:04.251Z,10.87
2018-01-30T11:00:32.729Z,10.95
2018-01-30T11:03:01.068Z,10.98
2018-01-30T11:05:29.386Z,10.98
2018-01-30T11:07:58.202Z,11.05
2018-01-30T11:10:26.576Z,10.96
2018-01-30T11:12:54.888Z,11.04
2018-01-30T11:15:23.280Z,10.90
2018-01-30T11:17:51.864Z,10.61
2018-01-30T11:20:20.289Z,10.75
2018-01-30T11:22:48.672Z,10.99
2018-01-30T11:25:16.974Z,11.25
2018-01-30T11:27:45.352Z,11.18
2018-01-30T11:30:13.696Z,11.31
2018-01-30T11:32:41.961Z,11.33
2018-01-30T11:35:10.348Z,11.40
2018-01-30T11:37:38.835Z,11.45
2018-01-30T11:40:08.086Z,11.37
2018-01-30T11:42:36.372Z,11.57
2018-01-30T11:45:05.354Z,11.57
2018-01-30T11:47:33.630Z,11.50
2018-01-30T11:50:01.896Z,11.62
2018-01-30T11:52:31.166Z,11.53
2018-01-30T11:54:59.462Z,11.49
2018-01-30T11:57:27.764Z,11.49
2018-01-30T11:59:56.036Z,11.50
2018-01-30T12:02:24.406Z,11.54
2018-01-30T12:04:53.341Z,11.58
2018-01-30T12:07:23.946Z,11.67
2018-01-30T12:09:52.258Z,11.79
2018-01-30T12:12:20.519Z,11.90
2018-01-30T12:14:48.841Z,11.88
2018-01-30T12:17:17.118Z,12.02
2018-01-30T12:19:45.434Z,11.82
2018-01-30T12:22:13.736Z,11.90
2018-01-30T12:24:42.095Z,12.00
2018-01-30T12:27:10.460Z,11.89
2018-01-30T12:29:38.855Z,11.96
2018-01-30T12:32:07.214Z,12.15
2018-01-30T12:34:35.610Z,11.95
2018-01-30T12:37:04.913Z,12.04
2018-01-30T12:39:33.902Z,12.07
2018-01-30T12:42:02.184Z,11.97
2018-01-30T12:44:30.536Z,11.98
2018-01-30T12:46:58.850Z,12.00
2018-01-30T12:49:27.147Z,12.02
2018-01-30T12:51:55.438Z,11.89
2018-01-30T12:54:23.748Z,11.98
2018-01-30T12:56:52.083Z,11.87
2018-01-30T12:59:20.453Z,12.00
2018-01-30T13:01:49.218Z,12.06
2018-01-30T13:04:17.525Z,11.99
2018-01-30T13:06:45.849Z,11.79
2018-01-30T13:09:14.266Z,11.80
2018-01-30T13:11:42.570Z,11.98
2018-01-30T13:14:10.860Z,12.16
2018-01-30T13:16:39.164Z,12.17
2018-01-30T13:19:07.438Z,12.20
2018-01-30T13:21:35.808Z,12.27
2018-01-30T13:24:05.152Z,12.35
2018-01-30T13:26:33.394Z,12.47
2018-01-30T13:29:01.723Z,12.43
2018-01-30T13:31:29.999Z,12.47
2018-01-30T13:33:58.323Z,12.45
2018-01-30T13:36:26.602Z,12.58
2018-01-30T13:38:54.881Z,12.49
2018-01-30T13:41:23.146Z,12.48
2018-01-30T13:43:52.228Z,12.39
2018-01-30T13:46:20.502Z,12.21
2018-01-30T13:48:48.809Z,12.21
2018-01-30T13:51:17.137Z,12.02
2018-01-30T13:53:45.412Z,11.84
2018-01-30T13:56:13.739Z,11.78
2018-01-30T13:58:42.045Z,11.83
2018-01-30T14:01:10.412Z,11.93
2018-01-30T14:03:38.670Z,11.89
2018-01-30T14:06:07.848Z,11.97
2018-01-30T14:08:36.128Z,12.11
2018-01-30T14:11:05.202Z,12.22
2018-01-30T14:13:33.639Z,12.34
2018-01-30T14:16:01.861Z,12.28
2018-01-30T14:18:30.189Z,12.41
2018-01-30T14:20:58.643Z,12.39
2018-01-30T14:23:27.271Z,12.14
2018-01-30T14:25:55.585Z,12.11
2018-01-30T14:28:23.942Z,12.09
2018-01-30T14:30:52.359Z,12.08
2018-01-30T14:33:20.638Z,11.84
2018-01-30T14:35:48.890Z,11.90
2018-01-30T14:38:17.207Z,11.98
2018-01-30T14:40:45.622Z,12.05
2018-01-30T14:43:13.878Z,11.95
2018-01-30T14:45:42.216Z,12.08
2018-01-30T14:48:10.515Z,12.01
2018-01-30T14:50:38.847Z,11.91
2018-01-30T14:53:07.129Z,12.17
2018-01-30T14:55:35.442Z,12.31
2018-01-30T14:58:04.133Z,12.29
2018-01-30T15:00:32.442Z,12.29
2018-01-30T15:03:00.712Z,12.23
2018-01-30T15:05:29.165Z,12.23
2018-01-30T15:07:58.261Z,12.27
2018-01-30T15:10:26.578Z,12.34
2018-01-30T15:12:54.874Z,12.39
2018-01-30T15:15:23.184Z,12.31
2018-01-30T15:17:51.613Z,12.26
2018-01-30T15:20:20.316Z,12.22
2018-01-30T15:22:48.722Z,12.17
2018-01-30T15:25:17.008Z,12.20
2018-01-30T15:27:45.313Z,12.14
2018-01-30T15:30:13.603Z,12.21
2018-01-30T15:32:41.929Z,12.24
2018-01-30T15:35:10.202Z,12.19
2018-01-30T15:37:38.534Z,12.09
2018-01-30T15:40:06.931Z,12.08
2018-01-30T15:42:35.962Z,11.99
2018-01-30T15:45:04.227Z,12.10
2018-01-30T15:47:32.580Z,12.10
2018-01-30T15:50:00.891Z,12.01
2018-01-30T15:52:29.206Z,11.99
2018-01-30T15:54:57.756Z,12.02
2018-01-30T15:57:26.419Z,12.03
2018-01-30T15:59:54.833Z,12.01
2018-01-30T16:02:23.107Z,11.89
2018-01-30T16:04:51.382Z,11.97
2018-01-30T16:07:19.712Z,11.93
2018-01-30T16:09:48.099Z,11.95
2018-01-30T16:12:16.497Z,11.88
2018-01-30T16:14:44.783Z,11.83
2018-01-30T16:17:13.048Z,11.83
2018-01-30T16:19:41.350Z,11.77
2018-01-30T16:22:09.673Z,11.74
2018-01-30T16:24:38.539Z,11.75
2018-01-30T16:27:07.067Z,11.68
2018-01-30T16:29:36.368Z,11.66
2018-01-30T16:32:04.746Z,11.65
2018-01-30T16:34:33.002Z,11.61
2018-01-30T16:37:01.312Z,11.54
2018-01-30T16:39:29.585Z,11.56
2018-01-30T16:41:57.942Z,11.58
2018-01-30T16:44:26.892Z,11.54
2018-01-30T16:46:55.687Z,11.48
2018-01-30T16:49:24.022Z,11.51
2018-01-30T16:51:52.401Z,11.52
2018-01-30T16:54:20.738Z,11.62
2018-01-30T16:56:49.048Z,11.60
2018-01-30T16:59:17.342Z,11.60
2018-01-30T17:01:45.607Z,11.60
2018-01-30T17:04:14.081Z,11.59
2018-01-30T17:06:42.442Z,11.58
2018-01-30T17:09:10.774Z,11.56
2018-01-30T17:11:39.166Z,11.60
2018-01-30T17:14:07.451Z,11.60
2018-01-30T17:16:35.776Z,11.73
2018-01-30T17:19:04.047Z,11.67
2018-01-30T17:21:32.403Z,11.59
2018-01-30T17:24:00.776Z,11.58
2018-01-30T17:26:29.795Z,11.60
2018-01-30T17:28:58.083Z,11.56
2018-01-30T17:31:26.401Z,11.51
2018-01-30T17:33:54.702Z,11.47
2018-01-30T17:36:23.092Z,11.50
2018-01-30T17:38:51.485Z,11.43
2018-01-30T17:41:19.814Z,11.43
2018-01-30T17:43:48.083Z,11.49
2018-01-30T17:46:16.371Z,11.47
2018-01-30T17:48:44.670Z,11.38
2018-01-30T17:51:12.938Z,11.32
2018-01-30T17:53:41.248Z,11.31
2018-01-30T17:56:09.581Z,11.24
2018-01-30T17:58:37.875Z,11.25
2018-01-30T18:01:06.184Z,11.23
2018-01-30T18:03:34.452Z,11.21
2018-01-30T18:06:02.776Z,11.18
2018-01-30T18:08:31.363Z,11.08
2018-01-30T18:10:59.742Z,10.97
2018-01-30T18:13:28.052Z,11.15
2018-01-30T18:15:56.374Z,11.23
2018-01-30T18:18:24.677Z,11.23
2018-01-30T18:20:52.977Z,11.15
2018-01-30T18:23:21.283Z,11.15
2018-01-30T18:25:49.603Z,11.17
2018-01-30T18:28:17.910Z,11.03
2018-01-30T18:30:46.212Z,11.15
2018-01-30T18:33:14.462Z,11.11
2018-01-30T18:35:42.743Z,11.17
2018-01-30T18:38:11.031Z,11.32
2018-01-30T18:40:39.295Z,11.27
2018-01-30T18:43:07.608Z,11.18
2018-01-30T18:45:36.176Z,11.21
2018-01-30T18:48:04.476Z,11.12
2018-01-30T18:50:32.800Z,11.07
2018-01-30T18:53:01.090Z,11.16
2018-01-30T18:55:29.374Z,11.16
2018-01-30T18:57:57.631Z,11.15
2018-01-30T19:00:25.910Z,11.21
2018-01-30T19:02:54.167Z,11.24
2018-01-30T19:05:22.459Z,11.16
2018-01-30T19:07:50.724Z,11.10
2018-01-30T19:10:19.013Z,11.11
2018-01-30T19:12:47.308Z,11.06
2018-01-30T19:15:15.572Z,11.03
2018-01-30T19:17:43.869Z,11.11
2018-01-30T19:20:12.159Z,10.99
2018-01-30T19:22:40.530Z,11.00
2018-01-30T19:25:08.787Z,10.93
2018-01-30T19:27:37.100Z,11.00
2018-01-30T19:30:05.382Z,10.94
2018-01-30T19:32:33.732Z,10.99
2018-01-30T19:35:01.993Z,10.88
2018-01-30T19:37:30.296Z,10.90
2018-01-30T19:39:58.563Z,10.90
2018-01-30T19:42:26.870Z,10.84
2018-01-30T19:44:55.166Z,10.88
2018-01-30T19:47:23.421Z,11.00
2018-01-30T19:49:52.666Z,10.99
2018-01-30T19:52:20.936Z,11.07
2018-01-30T19:54:49.234Z,11.03
2018-01-30T19:57:17.510Z,10.95
2018-01-30T19:59:45.868Z,10.93
2018-01-30T20:02:14.148Z,10.97
2018-01-30T20:04:42.506Z,10.86
2018-01-30T20:07:10.851Z,10.89
2018-01-30T20:09:39.115Z,11.07
2018-01-30T20:12:07.395Z,11.01
2018-01-30T20:14:35.709Z,11.11
2018-01-30T20:17:03.966Z,11.12
2018-01-30T20:19:32.287Z,11.14
2018-01-30T20:22:00.606Z,11.12
2018-01-30T20:24:28.860Z,10.99
2018-01-30T20:26:57.172Z,11.03
2018-01-30T20:29:25.545Z,11.00
2018-01-30T20:31:53.809Z,11.02
2018-01-30T20:34:22.071Z,10.88
2018-01-30T20:36:50.366Z,10.78
2018-01-30T20:39:18.679Z,10.76
2018-01-30T20:41:46.949Z,10.86
2018-01-30T20:44:15.195Z,10.92
2018-01-30T20:46:43.532Z,10.81
2018-01-30T20:49:11.808Z,10.68
2018-01-30T20:51:40.092Z,10.58
2018-01-30T20:54:08.375Z,10.61
2018-01-30T20:56:36.667Z,10.51
2018-01-30T20:59:04.954Z,10.58
2018-01-30T21:01:33.217Z,10.54
2018-01-30T21:04:01.508Z,10.51
2018-01-30T21:06:29.777Z,10.66
2018-01-30T21:08:58.128Z,10.61
2018-01-30T21:11:26.391Z,10.69
2018-01-30T21:13:54.657Z,10.73
2018-01-30T21:16:23.189Z,10.76
2018-01-30T21:18:51.527Z,10.60
2018-01-30T21:21:19.788Z,10.59
2018-01-30T21:23:48.109Z,10.58
2018-01-30T21:26:16.400Z,10.44
2018-01-30T21:28:44.705Z,10.40
2018-01-30T21:31:12.992Z,10.46
2018-01-30T21:33:41.267Z,10.45
2018-01-30T21:36:09.567Z,10.44
2018-01-30T21:38:37.835Z,10.40
2018-01-30T21:41:06.101Z,10.49
2018-01-30T21:43:34.417Z,10.47
2018-01-30T21:46:02.994Z,10.51
2018-01-30T21:48:31.271Z,10.48
2018-01-30T21:50:59.579Z,10.48
2018-01-30T21:53:27.908Z,10.57
2018-01-30T21:55:56.179Z,10.64
2018-01-30T21:58:24.496Z,10.65
2018-01-30T22:00:52.817Z,10.62
2018-01-30T22:03:21.133Z,10.72
2018-01-30T22:05:49.416Z,10.71
2018-01-30T22:08:17.722Z,10.56
2018-01-30T22:10:47.505Z,10.53
2018-01-30T22:13:15.887Z,10.54
2018-01-30T22:15:44.792Z,10.51
2018-01-30T22:18:13.058Z,10.54
2018-01-30T22:20:41.324Z,10.54
2018-01-30T22:23:09.614Z,10.47
2018-01-30T22:25:37.942Z,10.53
2018-01-30T22:28:06.213Z,10.58
2018-01-30T22:30:34.502Z,10.66
2018-01-30T22:33:02.826Z,10.55
2018-01-30T22:35:31.189Z,10.52
2018-01-30T22:37:59.498Z,10.34
2018-01-30T22:40:27.815Z,10.39
2018-01-30T22:42:56.116Z,10.36
2018-01-30T22:45:24.548Z,10.38
